createdAt,value
2022-12-25T00:00:05.318Z,100690.29000000001
2022-12-25T00:05:04.442Z,100686.8
2022-12-25T00:10:03.981Z,100687.8
2022-12-25T00:15:03.968Z,100697.09
2022-12-25T00:20:03.700Z,100706.03
2022-12-25T00:25:03.432Z,100729.06
2022-12-25T00:30:03.200Z,100739.67
2022-12-25T00:35:03.711Z,100740.62
2022-12-25T00:40:03.761Z,100741.03
2022-12-25T00:45:04.826Z,100744.73000000001
2022-12-25T00:50:04.000Z,100750.08
2022-12-25T00:55:03.289Z,100764.61
2022-12-25T01:00:03.385Z,100785.29999999999
2022-12-25T01:05:04.825Z,100794.95
2022-12-25T01:10:13.261Z,100802.67
2022-12-25T01:15:05.307Z,100812.09999999999
2022-12-25T01:20:04.031Z,100810.56999999999
2022-12-25T01:25:03.664Z,100812.39
2022-12-25T01:30:03.597Z,100810.36
2022-12-25T01:35:03.634Z,100802.14
2022-12-25T01:40:04.083Z,100807.79
2022-12-25T01:45:23.307Z,100802.08
2022-12-25T01:50:04.466Z,100804.61
2022-12-25T01:55:03.808Z,100807.09000000001
2022-12-25T02:00:05.183Z,100814.14
2022-12-25T02:05:07.573Z,100815.09
2022-12-25T02:10:03.974Z,100812.23999999999
2022-12-25T02:15:06.802Z,100804.19
2022-12-25T02:20:21.420Z,100795.9
2022-12-25T02:25:19.095Z,100797.58
2022-12-25T02:30:05.481Z,100804.45999999999
2022-12-25T02:35:09.843Z,100798.29
2022-12-25T02:40:10.895Z,100794.89
2022-12-25T02:45:13.403Z,100796.45000000001
2022-12-25T02:50:15.300Z,100793.55
2022-12-25T02:55:18.112Z,100792.9
2022-12-25T03:00:15.059Z,100789.64
2022-12-25T03:05:19.446Z,100798.20999999999
2022-12-25T03:10:16.934Z,100802.67
2022-12-25T03:15:15.522Z,100799.72
2022-12-25T03:20:14.471Z,100803.25
2022-12-25T03:25:13.124Z,100807.12
2022-12-25T03:30:13.244Z,100804.45999999999
2022-12-25T03:35:19.907Z,100804.83
2022-12-25T03:40:22.435Z,100807.17
2022-12-25T03:45:20.668Z,100807.62
2022-12-25T03:50:17.499Z,100809.55
2022-12-25T03:55:18.009Z,100809.39
2022-12-25T04:00:13.470Z,100807.84
2022-12-25T04:05:13.345Z,100815.59
2022-12-25T04:10:13.483Z,100828.03
2022-12-25T04:15:12.906Z,100833.78
2022-12-25T04:20:13.288Z,100838.87
2022-12-25T04:25:12.933Z,100843.73000000001
2022-12-25T04:30:13.364Z,100829.75
2022-12-25T04:35:13.102Z,100828.08
2022-12-25T04:40:03.806Z,100836.44
2022-12-25T04:45:03.376Z,100836.83
2022-12-25T04:50:03.760Z,100837.14
2022-12-25T04:55:04.182Z,100840.20000000001
2022-12-25T05:00:04.524Z,100840.84
2022-12-25T05:05:03.716Z,100851.51
2022-12-25T05:10:03.056Z,100839.47
2022-12-25T05:15:03.048Z,100846.12
2022-12-25T05:20:04.483Z,100841.69
2022-12-25T05:25:02.887Z,100842.75
2022-12-25T05:30:03.199Z,100846.72
2022-12-25T05:35:03.488Z,100860.06
2022-12-25T05:40:03.673Z,100855.12999999999
2022-12-25T05:45:03.172Z,100860.08
2022-12-25T05:50:04.014Z,100870.6
2022-12-25T05:55:03.195Z,100890.07
2022-12-25T06:00:03.551Z,100891.71
2022-12-25T06:05:03.276Z,100895.29
2022-12-25T06:10:03.091Z,100898.27
2022-12-25T06:15:03.178Z,100900.05
2022-12-25T06:20:03.751Z,100911.56
2022-12-25T06:25:02.811Z,100912.22
2022-12-25T06:30:03.934Z,100930.5
2022-12-25T06:35:03.211Z,100940.36
2022-12-25T06:40:03.428Z,100952.01
2022-12-25T06:45:02.938Z,100955.08
2022-12-25T06:50:04.765Z,100960.96
2022-12-25T06:55:02.788Z,100972.41
2022-12-25T07:00:03.484Z,100974.61
2022-12-25T07:05:03.336Z,100987.13
2022-12-25T07:10:02.817Z,100999.27
2022-12-25T07:15:02.879Z,101005.19
2022-12-25T07:20:03.509Z,101010.92
2022-12-25T07:25:02.775Z,101011.63
2022-12-25T07:30:03.854Z,101013.44
2022-12-25T07:35:03.716Z,101024.81
2022-12-25T07:40:03.550Z,101030.03
2022-12-25T07:45:02.955Z,101039.28
2022-12-25T07:50:03.294Z,101044.61
2022-12-25T07:55:02.793Z,101052.45999999999
2022-12-25T08:00:03.706Z,101066.61
2022-12-25T08:05:03.049Z,101074.22
2022-12-25T08:10:03.341Z,101076.65
2022-12-25T08:15:03.004Z,101085.6
2022-12-25T08:20:03.396Z,101091.54
2022-12-25T08:25:03.271Z,101101.03
2022-12-25T08:30:03.168Z,101099.69
2022-12-25T08:35:02.855Z,101110.06
2022-12-25T08:40:03.084Z,101109.69
2022-12-25T08:45:03.120Z,101120.87
2022-12-25T08:50:02.876Z,101128.99
2022-12-25T08:55:03.343Z,101139.95
2022-12-25T09:00:03.768Z,101144.55
2022-12-25T09:05:02.731Z,101145.59000000001
2022-12-25T09:10:03.052Z,101152.91
2022-12-25T09:15:03.778Z,101164.0
2022-12-25T09:20:02.884Z,101168.26999999999
2022-12-25T09:25:02.869Z,101172.91
2022-12-25T09:30:03.881Z,101174.86
2022-12-25T09:35:02.855Z,101165.99
2022-12-25T09:40:03.443Z,101172.16
2022-12-25T09:45:09.085Z,101169.58
2022-12-25T09:50:09.883Z,101146.38
2022-12-25T09:55:11.503Z,101141.16
2022-12-25T10:00:03.993Z,101151.44
2022-12-25T10:05:14.409Z,101154.31999999999
2022-12-25T10:10:19.576Z,101152.45
2022-12-25T10:15:18.357Z,101148.08
2022-12-25T10:20:13.205Z,101152.56000000001
2022-12-25T10:25:05.973Z,101150.56
2022-12-25T10:30:13.449Z,101156.69
2022-12-25T10:35:03.526Z,101158.48
2022-12-25T10:40:22.360Z,101158.32
2022-12-25T10:45:06.893Z,101158.17
2022-12-25T10:50:09.583Z,101163.01
2022-12-25T10:55:10.849Z,101169.46
2022-12-25T11:00:04.891Z,101168.52
2022-12-25T11:05:06.064Z,101163.48000000001
2022-12-25T11:10:14.186Z,101158.81000000001
2022-12-25T11:15:06.549Z,101151.97
2022-12-25T11:20:12.689Z,101146.97
2022-12-25T11:25:11.363Z,101139.20000000001
2022-12-25T11:30:04.089Z,101144.37000000001
2022-12-25T11:35:10.528Z,101139.06
2022-12-25T11:40:03.908Z,101141.94
2022-12-25T11:45:09.998Z,101143.53
2022-12-25T11:50:06.597Z,101142.69
2022-12-25T11:55:07.377Z,101141.56
2022-12-25T12:00:05.725Z,101150.89
2022-12-25T12:05:12.439Z,101150.66
2022-12-25T12:10:12.358Z,101155.98
2022-12-25T12:15:13.350Z,101155.0
2022-12-25T12:20:09.820Z,101162.51999999999
2022-12-25T12:25:06.255Z,101168.72
2022-12-25T12:30:05.079Z,101178.48
2022-12-25T12:35:13.041Z,101179.47
2022-12-25T12:40:04.229Z,101183.42
2022-12-25T12:45:08.414Z,101189.95
2022-12-25T12:50:02.911Z,101174.98000000001
2022-12-25T12:55:07.105Z,101171.01
2022-12-25T13:00:10.530Z,101174.15999999999
2022-12-25T13:05:04.891Z,101177.47
2022-12-25T13:10:12.754Z,101168.67
2022-12-25T13:15:10.341Z,101165.45
2022-12-25T13:20:04.282Z,101157.06
2022-12-25T13:25:04.970Z,101150.72
2022-12-25T13:30:12.352Z,101158.72
2022-12-25T13:35:02.662Z,101171.83
2022-12-25T13:40:06.409Z,101185.03
2022-12-25T13:45:05.981Z,101182.5
2022-12-25T13:50:14.673Z,101185.82
2022-12-25T13:55:09.785Z,101187.95
2022-12-25T14:00:07.212Z,101194.33
2022-12-25T14:05:03.342Z,101200.68
2022-12-25T14:10:03.158Z,101204.26999999999
2022-12-25T14:15:03.960Z,101205.56
2022-12-25T14:20:08.411Z,101213.0
2022-12-25T14:25:02.631Z,101222.88
2022-12-25T14:30:03.132Z,101223.08
2022-12-25T14:35:02.557Z,101220.96
2022-12-25T14:40:05.693Z,101223.63
2022-12-25T14:45:06.003Z,101227.45
2022-12-25T14:50:12.203Z,101230.4
2022-12-25T14:55:05.833Z,101226.81
2022-12-25T15:00:06.964Z,101236.73999999999
2022-12-25T15:05:02.373Z,101242.71
2022-12-25T15:10:47.171Z,101247.61
2022-12-25T15:15:02.836Z,101238.59999999999
2022-12-25T15:20:03.229Z,101247.69
2022-12-25T15:25:02.872Z,101249.65999999999
2022-12-25T15:30:14.040Z,101244.8
2022-12-25T15:35:02.916Z,101235.14
2022-12-25T15:40:02.773Z,101230.03
2022-12-25T15:45:02.897Z,101234.67000000001
2022-12-25T15:50:02.382Z,101232.54
2022-12-25T15:55:02.374Z,101244.19
2022-12-25T16:00:03.023Z,101249.17
2022-12-25T16:05:09.963Z,101251.78
2022-12-25T16:10:02.426Z,101256.31
2022-12-25T16:15:03.339Z,101251.98000000001
2022-12-25T16:20:02.815Z,101244.47
2022-12-25T16:25:02.848Z,101234.22
2022-12-25T16:30:03.263Z,101231.48999999999
2022-12-25T16:35:02.545Z,101238.56
2022-12-25T16:40:02.771Z,101240.72
2022-12-25T16:45:03.993Z,101251.25
2022-12-25T16:50:04.767Z,101258.83
2022-12-25T16:55:03.752Z,101264.12
2022-12-25T17:00:03.794Z,101252.59
2022-12-25T17:05:02.229Z,101236.1
2022-12-25T17:10:03.766Z,101236.51999999999
2022-12-25T17:15:03.594Z,101244.22
2022-12-25T17:20:03.652Z,101242.03
2022-12-25T17:25:02.233Z,101235.36
2022-12-25T17:30:02.851Z,101226.28
2022-12-25T17:35:02.479Z,101233.81000000001
2022-12-25T17:40:02.792Z,101230.3
2022-12-25T17:45:02.694Z,101219.56
2022-12-25T17:50:02.751Z,101205.42
2022-12-25T17:55:03.109Z,101203.54999999999
2022-12-25T18:00:03.293Z,101201.25
2022-12-25T18:05:02.256Z,101193.09
2022-12-25T18:10:02.699Z,101192.26999999999
2022-12-25T18:15:02.872Z,101202.21
2022-12-25T18:20:02.884Z,101207.69
2022-12-25T18:25:02.411Z,101209.13
2022-12-25T18:30:02.969Z,101219.34
2022-12-25T18:35:02.423Z,101205.19
2022-12-25T18:40:03.105Z,101204.37
2022-12-25T18:45:03.396Z,101203.89
2022-12-25T18:50:02.648Z,101208.28
2022-12-25T18:55:02.539Z,101200.73
2022-12-25T19:00:03.650Z,101200.36
2022-12-25T19:05:02.524Z,101194.03
2022-12-25T19:10:02.545Z,101190.20000000001
2022-12-25T19:15:02.695Z,101195.39
2022-12-25T19:20:04.620Z,101180.56
2022-12-25T19:25:02.441Z,101167.55
2022-12-25T19:30:02.893Z,101161.11
2022-12-25T19:35:03.535Z,101156.95
2022-12-25T19:40:03.060Z,101155.33
2022-12-25T19:45:02.614Z,101145.08
2022-12-25T19:50:02.856Z,101140.7
2022-12-25T19:55:02.136Z,101151.58
2022-12-25T20:00:03.499Z,101158.47
2022-12-25T20:05:02.687Z,101163.47
2022-12-25T20:10:02.291Z,101154.26999999999
2022-12-25T20:15:02.766Z,101167.8
2022-12-25T20:20:02.147Z,101165.04
2022-12-25T20:25:02.777Z,101166.06
2022-12-25T20:30:02.576Z,101153.7
2022-12-25T20:35:02.095Z,101153.26
2022-12-25T20:40:02.060Z,101153.21
2022-12-25T20:45:02.788Z,101153.34
2022-12-25T20:50:02.270Z,101138.98000000001
2022-12-25T20:55:02.594Z,101131.41
2022-12-25T21:00:04.071Z,101123.22
2022-12-25T21:05:02.140Z,101119.98
2022-12-25T21:10:02.956Z,101114.18
2022-12-25T21:15:02.598Z,101105.59
2022-12-25T21:20:02.431Z,101109.52
2022-12-25T21:25:02.471Z,101098.43
2022-12-25T21:30:14.971Z,101093.87000000001
2022-12-25T21:35:02.041Z,101081.67
2022-12-25T21:40:02.321Z,101085.97
2022-12-25T21:45:02.446Z,101079.88
2022-12-25T21:50:11.961Z,101083.47
2022-12-25T21:55:02.275Z,101080.66
2022-12-25T22:00:04.073Z,101075.31
2022-12-25T22:05:02.440Z,101062.56
2022-12-25T22:10:02.122Z,101059.02
2022-12-25T22:15:05.454Z,101043.22
2022-12-25T22:20:02.811Z,101032.83
2022-12-25T22:25:04.138Z,101028.92
2022-12-25T22:30:02.886Z,101022.83
2022-12-25T22:35:02.653Z,101015.28
2022-12-25T22:40:03.063Z,101005.08
2022-12-25T22:45:03.093Z,100988.65
2022-12-25T22:50:02.291Z,100978.23
2022-12-25T22:55:03.318Z,100983.29
2022-12-25T23:00:03.944Z,100976.9
2022-12-25T23:05:02.378Z,100962.7
2022-12-25T23:10:02.780Z,100961.72
2022-12-25T23:15:02.892Z,100972.55
2022-12-25T23:20:13.089Z,100977.44
2022-12-25T23:25:12.026Z,100967.81
2022-12-25T23:30:04.108Z,100961.36
2022-12-25T23:35:02.844Z,100943.52
2022-12-25T23:40:02.540Z,100947.72
2022-12-25T23:45:02.250Z,100944.17
2022-12-25T23:50:02.017Z,100947.29999999999
2022-12-25T23:55:01.823Z,100932.92
